sensor_id;sensor_type;location;lat;lon;timestamp;P1;durP1;ratioP1;P2;durP2;ratioP2
48823;SDS011;34640;53.590;10.054;2023-12-20T00:00:21;18.88;;;1.60;;
48823;SDS011;34640;53.590;10.054;2023-12-20T00:02:55;11.75;;;1.27;;
48823;SDS011;34640;53.590;10.054;2023-12-20T00:05:32;8.82;;;1.40;;
48823;SDS011;34640;53.590;10.054;2023-12-20T00:08:05;17.17;;;1.75;;
48823;SDS011;34640;53.590;10.054;2023-12-20T00:10:38;16.48;;;1.85;;
48823;SDS011;34640;53.590;10.054;2023-12-20T00:13:10;9.88;;;1.33;;
48823;SDS011;34640;53.590;10.054;2023-12-20T00:15:44;12.02;;;1.48;;
48823;SDS011;34640;53.590;10.054;2023-12-20T00:18:18;10.40;;;1.52;;
48823;SDS011;34640;53.590;10.054;2023-12-20T00:20:51;16.65;;;4.07;;
48823;SDS011;34640;53.590;10.054;2023-12-20T00:23:24;16.88;;;1.73;;
48823;SDS011;34640;53.590;10.054;2023-12-20T00:25:57;17.75;;;3.67;;
48823;SDS011;34640;53.590;10.054;2023-12-20T00:28:31;16.85;;;1.88;;
48823;SDS011;34640;53.590;10.054;2023-12-20T00:31:04;17.00;;;2.05;;
48823;SDS011;34640;53.590;10.054;2023-12-20T00:33:38;21.67;;;1.92;;
48823;SDS011;34640;53.590;10.054;2023-12-20T00:36:15;20.80;;;1.30;;
48823;SDS011;34640;53.590;10.054;2023-12-20T00:38:48;21.98;;;1.70;;
48823;SDS011;34640;53.590;10.054;2023-12-20T00:41:22;14.93;;;1.98;;
48823;SDS011;34640;53.590;10.054;2023-12-20T00:43:55;10.02;;;1.40;;
48823;SDS011;34640;53.590;10.054;2023-12-20T00:46:28;18.33;;;1.70;;
48823;SDS011;34640;53.590;10.054;2023-12-20T00:49:02;17.70;;;1.95;;
48823;SDS011;34640;53.590;10.054;2023-12-20T00:51:35;21.60;;;1.77;;
48823;SDS011;34640;53.590;10.054;2023-12-20T00:54:09;23.17;;;1.40;;
48823;SDS011;34640;53.590;10.054;2023-12-20T00:56:41;16.63;;;1.90;;
48823;SDS011;34640;53.590;10.054;2023-12-20T00:59:15;15.60;;;1.88;;
48823;SDS011;34640;53.590;10.054;2023-12-20T01:01:50;14.82;;;2.05;;
48823;SDS011;34640;53.590;10.054;2023-12-20T01:04:24;14.55;;;1.92;;
48823;SDS011;34640;53.590;10.054;2023-12-20T01:06:59;15.40;;;1.80;;
48823;SDS011;34640;53.590;10.054;2023-12-20T01:09:32;23.33;;;1.98;;
48823;SDS011;34640;53.590;10.054;2023-12-20T01:12:06;14.43;;;1.50;;
48823;SDS011;34640;53.590;10.054;2023-12-20T01:14:39;13.93;;;1.80;;
48823;SDS011;34640;53.590;10.054;2023-12-20T01:17:11;13.25;;;1.83;;
48823;SDS011;34640;53.590;10.054;2023-12-20T01:19:46;20.52;;;1.48;;
48823;SDS011;34640;53.590;10.054;2023-12-20T01:22:19;17.02;;;1.95;;
48823;SDS011;34640;53.590;10.054;2023-12-20T01:24:51;15.80;;;1.35;;
48823;SDS011;34640;53.590;10.054;2023-12-20T01:27:24;14.40;;;1.50;;
48823;SDS011;34640;53.590;10.054;2023-12-20T01:29:58;13.88;;;1.50;;
48823;SDS011;34640;53.590;10.054;2023-12-20T01:32:31;17.73;;;2.10;;
48823;SDS011;34640;53.590;10.054;2023-12-20T01:35:06;14.23;;;1.60;;
48823;SDS011;34640;53.590;10.054;2023-12-20T01:37:40;23.23;;;1.90;;
48823;SDS011;34640;53.590;10.054;2023-12-20T01:40:13;17.77;;;1.95;;
48823;SDS011;34640;53.590;10.054;2023-12-20T01:42:47;23.77;;;1.75;;
48823;SDS011;34640;53.590;10.054;2023-12-20T01:45:20;19.63;;;1.83;;
48823;SDS011;34640;53.590;10.054;2023-12-20T01:47:53;15.38;;;1.95;;
48823;SDS011;34640;53.590;10.054;2023-12-20T01:50:28;16.17;;;3.20;;
48823;SDS011;34640;53.590;10.054;2023-12-20T01:53:04;15.73;;;1.27;;
48823;SDS011;34640;53.590;10.054;2023-12-20T01:55:40;13.45;;;1.70;;
48823;SDS011;34640;53.590;10.054;2023-12-20T01:58:14;20.00;;;1.95;;
48823;SDS011;34640;53.590;10.054;2023-12-20T02:00:47;19.45;;;1.80;;
48823;SDS011;34640;53.590;10.054;2023-12-20T02:03:21;15.32;;;1.98;;
48823;SDS011;34640;53.590;10.054;2023-12-20T02:05:56;13.65;;;1.50;;
48823;SDS011;34640;53.590;10.054;2023-12-20T02:08:29;14.30;;;1.80;;
48823;SDS011;34640;53.590;10.054;2023-12-20T02:11:02;10.48;;;1.27;;
48823;SDS011;34640;53.590;10.054;2023-12-20T02:13:35;24.70;;;2.42;;
48823;SDS011;34640;53.590;10.054;2023-12-20T02:16:08;15.25;;;2.08;;
48823;SDS011;34640;53.590;10.054;2023-12-20T02:18:41;13.00;;;1.58;;
48823;SDS011;34640;53.590;10.054;2023-12-20T02:21:17;16.27;;;1.85;;
48823;SDS011;34640;53.590;10.054;2023-12-20T02:23:51;12.38;;;1.90;;
48823;SDS011;34640;53.590;10.054;2023-12-20T02:26:24;24.55;;;1.92;;
48823;SDS011;34640;53.590;10.054;2023-12-20T02:28:58;11.88;;;1.30;;
48823;SDS011;34640;53.590;10.054;2023-12-20T02:31:31;27.48;;;3.42;;
48823;SDS011;34640;53.590;10.054;2023-12-20T02:34:05;12.07;;;2.33;;
48823;SDS011;34640;53.590;10.054;2023-12-20T02:36:38;12.05;;;1.23;;
48823;SDS011;34640;53.590;10.054;2023-12-20T02:39:13;10.10;;;1.30;;
48823;SDS011;34640;53.590;10.054;2023-12-20T02:41:46;17.83;;;1.73;;
48823;SDS011;34640;53.590;10.054;2023-12-20T02:44:19;13.75;;;3.00;;
48823;SDS011;34640;53.590;10.054;2023-12-20T02:46:52;17.58;;;1.85;;
48823;SDS011;34640;53.590;10.054;2023-12-20T02:49:25;16.92;;;2.08;;
48823;SDS011;34640;53.590;10.054;2023-12-20T02:51:58;16.45;;;1.90;;
48823;SDS011;34640;53.590;10.054;2023-12-20T02:54:33;15.20;;;1.77;;
48823;SDS011;34640;53.590;10.054;2023-12-20T02:57:06;23.35;;;3.35;;
48823;SDS011;34640;53.590;10.054;2023-12-20T02:59:39;10.50;;;1.42;;
48823;SDS011;34640;53.590;10.054;2023-12-20T03:02:11;14.68;;;1.33;;
48823;SDS011;34640;53.590;10.054;2023-12-20T03:04:44;15.18;;;1.42;;
48823;SDS011;34640;53.590;10.054;2023-12-20T03:07:17;14.20;;;1.70;;
48823;SDS011;34640;53.590;10.054;2023-12-20T03:09:52;11.70;;;1.52;;
48823;SDS011;34640;53.590;10.054;2023-12-20T03:12:45;10.18;;;1.25;;
48823;SDS011;34640;53.590;10.054;2023-12-20T03:15:18;13.73;;;1.77;;
48823;SDS011;34640;53.590;10.054;2023-12-20T03:17:51;23.58;;;2.67;;
48823;SDS011;34640;53.590;10.054;2023-12-20T03:20:24;16.70;;;1.77;;
48823;SDS011;34640;53.590;10.054;2023-12-20T03:22:57;18.88;;;1.75;;
48823;SDS011;34640;53.590;10.054;2023-12-20T03:25:32;15.73;;;2.35;;
48823;SDS011;34640;53.590;10.054;2023-12-20T03:28:05;14.02;;;1.95;;
48823;SDS011;34640;53.590;10.054;2023-12-20T03:30:38;18.13;;;2.70;;
48823;SDS011;34640;53.590;10.054;2023-12-20T03:33:10;15.35;;;1.85;;
48823;SDS011;34640;53.590;10.054;2023-12-20T03:35:45;9.82;;;1.77;;
48823;SDS011;34640;53.590;10.054;2023-12-20T03:38:18;16.35;;;1.83;;
48823;SDS011;34640;53.590;10.054;2023-12-20T03:40:52;18.13;;;2.20;;
48823;SDS011;34640;53.590;10.054;2023-12-20T03:43:25;11.30;;;1.60;;
48823;SDS011;34640;53.590;10.054;2023-12-20T03:45:58;13.27;;;1.52;;
48823;SDS011;34640;53.590;10.054;2023-12-20T03:48:31;16.48;;;1.45;;
48823;SDS011;34640;53.590;10.054;2023-12-20T03:51:04;13.60;;;2.15;;
48823;SDS011;34640;53.590;10.054;2023-12-20T03:53:38;11.80;;;1.27;;
48823;SDS011;34640;53.590;10.054;2023-12-20T03:56:13;10.65;;;1.45;;
48823;SDS011;34640;53.590;10.054;2023-12-20T03:58:46;14.40;;;1.80;;
48823;SDS011;34640;53.590;10.054;2023-12-20T04:01:19;12.48;;;2.28;;
48823;SDS011;34640;53.590;10.054;2023-12-20T04:03:52;17.17;;;2.15;;
48823;SDS011;34640;53.590;10.054;2023-12-20T04:06:25;10.25;;;1.42;;
48823;SDS011;34640;53.590;10.054;2023-12-20T04:08:58;15.10;;;2.03;;
48823;SDS011;34640;53.590;10.054;2023-12-20T04:11:33;10.57;;;1.52;;
48823;SDS011;34640;53.590;10.054;2023-12-20T04:14:06;15.55;;;2.38;;
48823;SDS011;34640;53.590;10.054;2023-12-20T04:16:40;16.30;;;1.75;;
48823;SDS011;34640;53.590;10.054;2023-12-20T04:19:17;13.00;;;1.27;;
48823;SDS011;34640;53.590;10.054;2023-12-20T04:21:50;16.95;;;2.17;;
48823;SDS011;34640;53.590;10.054;2023-12-20T04:24:23;14.63;;;2.08;;
48823;SDS011;34640;53.590;10.054;2023-12-20T04:26:57;11.40;;;2.83;;
48823;SDS011;34640;53.590;10.054;2023-12-20T04:29:30;16.55;;;2.35;;
48823;SDS011;34640;53.590;10.054;2023-12-20T04:32:03;20.58;;;2.55;;
48823;SDS011;34640;53.590;10.054;2023-12-20T04:34:37;12.70;;;2.03;;
48823;SDS011;34640;53.590;10.054;2023-12-20T04:37:09;15.05;;;1.70;;
48823;SDS011;34640;53.590;10.054;2023-12-20T04:39:43;11.77;;;1.48;;
48823;SDS011;34640;53.590;10.054;2023-12-20T04:42:18;13.05;;;1.98;;
48823;SDS011;34640;53.590;10.054;2023-12-20T04:44:52;14.63;;;1.60;;
48823;SDS011;34640;53.590;10.054;2023-12-20T04:47:25;13.70;;;1.60;;
48823;SDS011;34640;53.590;10.054;2023-12-20T04:49:58;14.57;;;1.90;;
48823;SDS011;34640;53.590;10.054;2023-12-20T04:52:31;15.73;;;1.83;;
48823;SDS011;34640;53.590;10.054;2023-12-20T04:55:05;11.07;;;1.70;;
48823;SDS011;34640;53.590;10.054;2023-12-20T04:57:39;15.20;;;2.67;;
48823;SDS011;34640;53.590;10.054;2023-12-20T05:00:12;16.60;;;1.85;;
48823;SDS011;34640;53.590;10.054;2023-12-20T05:02:48;11.93;;;1.55;;
48823;SDS011;34640;53.590;10.054;2023-12-20T05:05:21;18.80;;;1.95;;
48823;SDS011;34640;53.590;10.054;2023-12-20T05:07:54;11.10;;;1.60;;
48823;SDS011;34640;53.590;10.054;2023-12-20T05:10:27;11.35;;;1.63;;
48823;SDS011;34640;53.590;10.054;2023-12-20T05:13:03;18.23;;;1.90;;
48823;SDS011;34640;53.590;10.054;2023-12-20T05:15:36;12.43;;;1.45;;
48823;SDS011;34640;53.590;10.054;2023-12-20T05:18:09;9.77;;;1.92;;
48823;SDS011;34640;53.590;10.054;2023-12-20T05:20:43;13.63;;;1.70;;
48823;SDS011;34640;53.590;10.054;2023-12-20T05:23:17;26.30;;;4.70;;
48823;SDS011;34640;53.590;10.054;2023-12-20T05:25:51;18.30;;;1.50;;
48823;SDS011;34640;53.590;10.054;2023-12-20T05:28:25;12.93;;;1.50;;
48823;SDS011;34640;53.590;10.054;2023-12-20T05:30:58;11.90;;;2.05;;
48823;SDS011;34640;53.590;10.054;2023-12-20T05:33:32;17.35;;;1.73;;
48823;SDS011;34640;53.590;10.054;2023-12-20T05:36:05;22.45;;;2.38;;
48823;SDS011;34640;53.590;10.054;2023-12-20T05:38:42;12.88;;;2.03;;
48823;SDS011;34640;53.590;10.054;2023-12-20T05:41:15;18.55;;;2.03;;
48823;SDS011;34640;53.590;10.054;2023-12-20T05:43:49;16.35;;;2.65;;
48823;SDS011;34640;53.590;10.054;2023-12-20T05:46:22;14.85;;;2.45;;
48823;SDS011;34640;53.590;10.054;2023-12-20T05:48:55;16.08;;;1.65;;
48823;SDS011;34640;53.590;10.054;2023-12-20T05:51:28;13.57;;;2.17;;
48823;SDS011;34640;53.590;10.054;2023-12-20T05:54:01;13.35;;;2.42;;
48823;SDS011;34640;53.590;10.054;2023-12-20T05:56:34;16.67;;;2.55;;
48823;SDS011;34640;53.590;10.054;2023-12-20T05:59:08;11.50;;;2.00;;
48823;SDS011;34640;53.590;10.054;2023-12-20T06:01:41;15.23;;;2.25;;
48823;SDS011;34640;53.590;10.054;2023-12-20T06:04:14;17.58;;;3.50;;
48823;SDS011;34640;53.590;10.054;2023-12-20T06:06:47;20.05;;;2.78;;
48823;SDS011;34640;53.590;10.054;2023-12-20T06:09:20;15.32;;;3.25;;
48823;SDS011;34640;53.590;10.054;2023-12-20T06:11:53;20.85;;;2.17;;
48823;SDS011;34640;53.590;10.054;2023-12-20T06:14:27;17.27;;;3.28;;
48823;SDS011;34640;53.590;10.054;2023-12-20T06:17:02;18.55;;;1.95;;
48823;SDS011;34640;53.590;10.054;2023-12-20T06:19:35;19.85;;;2.58;;
48823;SDS011;34640;53.590;10.054;2023-12-20T06:22:08;20.27;;;2.63;;
48823;SDS011;34640;53.590;10.054;2023-12-20T06:24:43;17.13;;;2.17;;
48823;SDS011;34640;53.590;10.054;2023-12-20T06:27:16;9.45;;;1.80;;
48823;SDS011;34640;53.590;10.054;2023-12-20T06:29:51;13.75;;;2.38;;
48823;SDS011;34640;53.590;10.054;2023-12-20T06:32:23;14.10;;;1.88;;
48823;SDS011;34640;53.590;10.054;2023-12-20T06:34:56;13.43;;;2.60;;
48823;SDS011;34640;53.590;10.054;2023-12-20T06:37:32;13.25;;;2.45;;
48823;SDS011;34640;53.590;10.054;2023-12-20T06:40:06;19.52;;;2.35;;
48823;SDS011;34640;53.590;10.054;2023-12-20T06:42:48;15.65;;;2.55;;
48823;SDS011;34640;53.590;10.054;2023-12-20T06:45:38;14.10;;;1.67;;
48823;SDS011;34640;53.590;10.054;2023-12-20T06:48:12;23.05;;;2.78;;
48823;SDS011;34640;53.590;10.054;2023-12-20T06:50:47;16.08;;;2.33;;
48823;SDS011;34640;53.590;10.054;2023-12-20T06:53:20;12.93;;;1.85;;
48823;SDS011;34640;53.590;10.054;2023-12-20T06:55:53;20.85;;;3.05;;
48823;SDS011;34640;53.590;10.054;2023-12-20T06:58:27;15.15;;;2.05;;
48823;SDS011;34640;53.590;10.054;2023-12-20T07:01:02;21.92;;;3.10;;
48823;SDS011;34640;53.590;10.054;2023-12-20T07:03:36;16.45;;;2.17;;
48823;SDS011;34640;53.590;10.054;2023-12-20T07:06:09;11.57;;;2.05;;
48823;SDS011;34640;53.590;10.054;2023-12-20T07:08:41;20.48;;;2.38;;
48823;SDS011;34640;53.590;10.054;2023-12-20T07:11:14;11.30;;;1.98;;
48823;SDS011;34640;53.590;10.054;2023-12-20T07:13:48;14.20;;;2.03;;
48823;SDS011;34640;53.590;10.054;2023-12-20T07:16:22;15.07;;;1.92;;
48823;SDS011;34640;53.590;10.054;2023-12-20T07:18:56;18.45;;;2.22;;
48823;SDS011;34640;53.590;10.054;2023-12-20T07:21:29;12.93;;;1.77;;
48823;SDS011;34640;53.590;10.054;2023-12-20T07:24:03;13.02;;;2.58;;
48823;SDS011;34640;53.590;10.054;2023-12-20T07:26:36;11.88;;;1.85;;
48823;SDS011;34640;53.590;10.054;2023-12-20T07:29:10;14.82;;;3.08;;
48823;SDS011;34640;53.590;10.054;2023-12-20T07:31:45;18.88;;;2.78;;
48823;SDS011;34640;53.590;10.054;2023-12-20T07:34:19;22.10;;;3.42;;
48823;SDS011;34640;53.590;10.054;2023-12-20T07:36:52;16.92;;;1.92;;
48823;SDS011;34640;53.590;10.054;2023-12-20T07:39:25;22.58;;;2.50;;
48823;SDS011;34640;53.590;10.054;2023-12-20T07:41:58;20.13;;;2.53;;
48823;SDS011;34640;53.590;10.054;2023-12-20T07:44:30;13.27;;;2.28;;
48823;SDS011;34640;53.590;10.054;2023-12-20T07:47:05;28.27;;;3.13;;
48823;SDS011;34640;53.590;10.054;2023-12-20T07:49:38;27.52;;;2.63;;
48823;SDS011;34640;53.590;10.054;2023-12-20T07:52:12;23.70;;;2.80;;
48823;SDS011;34640;53.590;10.054;2023-12-20T07:54:45;13.65;;;2.33;;
48823;SDS011;34640;53.590;10.054;2023-12-20T07:57:18;26.08;;;4.20;;
48823;SDS011;34640;53.590;10.054;2023-12-20T07:59:51;20.25;;;2.53;;
48823;SDS011;34640;53.590;10.054;2023-12-20T08:02:25;25.58;;;3.28;;
48823;SDS011;34640;53.590;10.054;2023-12-20T08:04:58;22.85;;;3.17;;
48823;SDS011;34640;53.590;10.054;2023-12-20T08:07:31;23.27;;;2.47;;
48823;SDS011;34640;53.590;10.054;2023-12-20T08:10:05;18.35;;;2.97;;
48823;SDS011;34640;53.590;10.054;2023-12-20T08:12:39;19.05;;;3.25;;
48823;SDS011;34640;53.590;10.054;2023-12-20T08:15:12;17.45;;;3.50;;
48823;SDS011;34640;53.590;10.054;2023-12-20T08:17:47;21.92;;;2.53;;
48823;SDS011;34640;53.590;10.054;2023-12-20T08:20:22;14.57;;;2.30;;
48823;SDS011;34640;53.590;10.054;2023-12-20T08:23:10;14.57;;;2.67;;
48823;SDS011;34640;53.590;10.054;2023-12-20T08:25:43;19.17;;;2.60;;
48823;SDS011;34640;53.590;10.054;2023-12-20T08:28:16;20.77;;;2.90;;
48823;SDS011;34640;53.590;10.054;2023-12-20T08:30:50;21.00;;;3.88;;
48823;SDS011;34640;53.590;10.054;2023-12-20T08:33:28;18.20;;;2.35;;
48823;SDS011;34640;53.590;10.054;2023-12-20T08:36:02;27.73;;;3.58;;
48823;SDS011;34640;53.590;10.054;2023-12-20T08:38:37;13.85;;;2.67;;
48823;SDS011;34640;53.590;10.054;2023-12-20T08:41:10;22.75;;;2.33;;
48823;SDS011;34640;53.590;10.054;2023-12-20T08:43:43;18.95;;;3.00;;
48823;SDS011;34640;53.590;10.054;2023-12-20T08:46:16;16.90;;;2.42;;
48823;SDS011;34640;53.590;10.054;2023-12-20T08:48:51;13.27;;;2.22;;
48823;SDS011;34640;53.590;10.054;2023-12-20T08:51:24;13.25;;;2.50;;
48823;SDS011;34640;53.590;10.054;2023-12-20T08:53:57;18.90;;;2.85;;
48823;SDS011;34640;53.590;10.054;2023-12-20T08:56:30;16.23;;;2.53;;
48823;SDS011;34640;53.590;10.054;2023-12-20T08:59:03;15.88;;;2.28;;
48823;SDS011;34640;53.590;10.054;2023-12-20T09:01:36;15.55;;;2.40;;
48823;SDS011;34640;53.590;10.054;2023-12-20T09:04:10;11.65;;;1.60;;
48823;SDS011;34640;53.590;10.054;2023-12-20T09:06:43;19.75;;;3.75;;
48823;SDS011;34640;53.590;10.054;2023-12-20T09:09:19;25.30;;;3.22;;
48823;SDS011;34640;53.590;10.054;2023-12-20T09:11:52;16.60;;;2.20;;
48823;SDS011;34640;53.590;10.054;2023-12-20T09:14:26;16.80;;;1.90;;
48823;SDS011;34640;53.590;10.054;2023-12-20T09:17:01;7.60;;;1.38;;
48823;SDS011;34640;53.590;10.054;2023-12-20T09:19:36;8.45;;;1.60;;
48823;SDS011;34640;53.590;10.054;2023-12-20T09:22:09;10.60;;;1.50;;
48823;SDS011;34640;53.590;10.054;2023-12-20T09:24:42;15.50;;;1.90;;
48823;SDS011;34640;53.590;10.054;2023-12-20T09:27:16;13.60;;;1.73;;
48823;SDS011;34640;53.590;10.054;2023-12-20T09:29:49;10.57;;;1.17;;
48823;SDS011;34640;53.590;10.054;2023-12-20T09:32:23;8.40;;;1.45;;
48823;SDS011;34640;53.590;10.054;2023-12-20T09:34:57;5.97;;;1.40;;
48823;SDS011;34640;53.590;10.054;2023-12-20T09:37:30;7.75;;;0.93;;
48823;SDS011;34640;53.590;10.054;2023-12-20T09:40:03;7.30;;;1.13;;
48823;SDS011;34640;53.590;10.054;2023-12-20T09:42:38;8.50;;;1.00;;
48823;SDS011;34640;53.590;10.054;2023-12-20T09:45:15;3.60;;;0.75;;
48823;SDS011;34640;53.590;10.054;2023-12-20T09:47:54;2.30;;;0.45;;
48823;SDS011;34640;53.590;10.054;2023-12-20T09:50:28;7.03;;;1.08;;
48823;SDS011;34640;53.590;10.054;2023-12-20T09:53:04;4.75;;;0.88;;
48823;SDS011;34640;53.590;10.054;2023-12-20T09:55:40;2.03;;;0.50;;
48823;SDS011;34640;53.590;10.054;2023-12-20T09:58:13;6.45;;;0.47;;
48823;SDS011;34640;53.590;10.054;2023-12-20T10:00:46;1.13;;;0.35;;
48823;SDS011;34640;53.590;10.054;2023-12-20T10:03:21;3.70;;;0.50;;
48823;SDS011;34640;53.590;10.054;2023-12-20T10:05:58;3.40;;;0.63;;
48823;SDS011;34640;53.590;10.054;2023-12-20T10:08:33;5.47;;;1.00;;
48823;SDS011;34640;53.590;10.054;2023-12-20T10:11:06;4.43;;;1.00;;
48823;SDS011;34640;53.590;10.054;2023-12-20T10:13:39;5.15;;;0.65;;
48823;SDS011;34640;53.590;10.054;2023-12-20T10:16:13;5.85;;;2.25;;
48823;SDS011;34640;53.590;10.054;2023-12-20T10:18:46;9.38;;;1.00;;
48823;SDS011;34640;53.590;10.054;2023-12-20T10:21:20;2.40;;;0.47;;
48823;SDS011;34640;53.590;10.054;2023-12-20T10:23:53;3.70;;;0.50;;
48823;SDS011;34640;53.590;10.054;2023-12-20T10:26:27;6.65;;;0.70;;
48823;SDS011;34640;53.590;10.054;2023-12-20T10:29:00;3.85;;;0.47;;
48823;SDS011;34640;53.590;10.054;2023-12-20T10:31:36;4.07;;;0.68;;
48823;SDS011;34640;53.590;10.054;2023-12-20T10:34:10;5.30;;;0.50;;
48823;SDS011;34640;53.590;10.054;2023-12-20T10:36:45;9.60;;;0.70;;
48823;SDS011;34640;53.590;10.054;2023-12-20T10:39:18;3.40;;;0.50;;
48823;SDS011;34640;53.590;10.054;2023-12-20T10:41:51;4.25;;;0.75;;
48823;SDS011;34640;53.590;10.054;2023-12-20T10:44:24;2.10;;;0.38;;
48823;SDS011;34640;53.590;10.054;2023-12-20T10:46:57;9.65;;;0.63;;
48823;SDS011;34640;53.590;10.054;2023-12-20T10:49:30;6.38;;;1.48;;
48823;SDS011;34640;53.590;10.054;2023-12-20T10:52:09;4.43;;;0.70;;
48823;SDS011;34640;53.590;10.054;2023-12-20T10:54:44;4.38;;;0.70;;
48823;SDS011;34640;53.590;10.054;2023-12-20T10:57:18;4.63;;;0.57;;
48823;SDS011;34640;53.590;10.054;2023-12-20T10:59:51;5.80;;;1.17;;
48823;SDS011;34640;53.590;10.054;2023-12-20T11:02:27;6.65;;;0.88;;
48823;SDS011;34640;53.590;10.054;2023-12-20T11:05:04;9.48;;;1.00;;
48823;SDS011;34640;53.590;10.054;2023-12-20T11:07:46;10.38;;;1.25;;
48823;SDS011;34640;53.590;10.054;2023-12-20T11:10:25;11.77;;;1.67;;
48823;SDS011;34640;53.590;10.054;2023-12-20T11:13:03;8.25;;;1.20;;
48823;SDS011;34640;53.590;10.054;2023-12-20T11:15:43;6.80;;;1.08;;
48823;SDS011;34640;53.590;10.054;2023-12-20T11:18:17;15.50;;;5.13;;
48823;SDS011;34640;53.590;10.054;2023-12-20T11:20:51;9.88;;;2.10;;
48823;SDS011;34640;53.590;10.054;2023-12-20T11:23:25;17.33;;;3.58;;
48823;SDS011;34640;53.590;10.054;2023-12-20T11:25:58;11.30;;;1.75;;
48823;SDS011;34640;53.590;10.054;2023-12-20T11:28:31;3.60;;;0.70;;
48823;SDS011;34640;53.590;10.054;2023-12-20T11:31:05;5.85;;;0.90;;
48823;SDS011;34640;53.590;10.054;2023-12-20T11:33:38;5.65;;;0.70;;
48823;SDS011;34640;53.590;10.054;2023-12-20T11:36:13;4.70;;;0.52;;
48823;SDS011;34640;53.590;10.054;2023-12-20T11:38:55;3.75;;;0.60;;
48823;SDS011;34640;53.590;10.054;2023-12-20T11:41:29;9.27;;;0.65;;
48823;SDS011;34640;53.590;10.054;2023-12-20T11:44:06;3.97;;;0.50;;
48823;SDS011;34640;53.590;10.054;2023-12-20T11:46:40;2.70;;;0.50;;
48823;SDS011;34640;53.590;10.054;2023-12-20T11:49:13;4.47;;;0.60;;
48823;SDS011;34640;53.590;10.054;2023-12-20T11:51:46;8.32;;;0.73;;
48823;SDS011;34640;53.590;10.054;2023-12-20T11:54:21;6.03;;;1.73;;
48823;SDS011;34640;53.590;10.054;2023-12-20T11:56:54;9.43;;;1.20;;
48823;SDS011;34640;53.590;10.054;2023-12-20T11:59:27;9.77;;;1.10;;
48823;SDS011;34640;53.590;10.054;2023-12-20T12:02:00;13.35;;;2.20;;
48823;SDS011;34640;53.590;10.054;2023-12-20T12:04:34;17.77;;;1.42;;
48823;SDS011;34640;53.590;10.054;2023-12-20T12:07:07;8.38;;;1.35;;
48823;SDS011;34640;53.590;10.054;2023-12-20T12:09:42;19.17;;;1.83;;
48823;SDS011;34640;53.590;10.054;2023-12-20T12:12:16;16.65;;;1.50;;
48823;SDS011;34640;53.590;10.054;2023-12-20T12:14:51;9.48;;;1.38;;
48823;SDS011;34640;53.590;10.054;2023-12-20T12:17:24;14.13;;;2.10;;
48823;SDS011;34640;53.590;10.054;2023-12-20T12:20:01;18.52;;;1.70;;
48823;SDS011;34640;53.590;10.054;2023-12-20T12:22:37;11.20;;;2.10;;
48823;SDS011;34640;53.590;10.054;2023-12-20T12:25:12;14.52;;;2.15;;
48823;SDS011;34640;53.590;10.054;2023-12-20T12:27:46;9.05;;;1.85;;
48823;SDS011;34640;53.590;10.054;2023-12-20T12:30:19;12.65;;;1.55;;
48823;SDS011;34640;53.590;10.054;2023-12-20T12:32:52;11.80;;;1.55;;
48823;SDS011;34640;53.590;10.054;2023-12-20T12:35:26;16.30;;;1.88;;
48823;SDS011;34640;53.590;10.054;2023-12-20T12:37:59;16.88;;;2.03;;
48823;SDS011;34640;53.590;10.054;2023-12-20T12:40:36;19.08;;;2.28;;
48823;SDS011;34640;53.590;10.054;2023-12-20T12:43:09;20.00;;;2.53;;
48823;SDS011;34640;53.590;10.054;2023-12-20T12:45:42;22.05;;;3.53;;
48823;SDS011;34640;53.590;10.054;2023-12-20T12:48:15;21.98;;;2.65;;
48823;SDS011;34640;53.590;10.054;2023-12-20T12:50:48;28.88;;;2.35;;
48823;SDS011;34640;53.590;10.054;2023-12-20T12:53:23;17.95;;;2.60;;
48823;SDS011;34640;53.590;10.054;2023-12-20T12:55:57;25.75;;;2.60;;
48823;SDS011;34640;53.590;10.054;2023-12-20T12:58:30;16.77;;;1.90;;
48823;SDS011;34640;53.590;10.054;2023-12-20T13:01:04;13.95;;;2.03;;
48823;SDS011;34640;53.590;10.054;2023-12-20T13:03:37;20.83;;;3.22;;
48823;SDS011;34640;53.590;10.054;2023-12-20T13:06:09;12.93;;;2.08;;
48823;SDS011;34640;53.590;10.054;2023-12-20T13:08:42;15.50;;;2.03;;
48823;SDS011;34640;53.590;10.054;2023-12-20T13:11:17;15.88;;;2.28;;
48823;SDS011;34640;53.590;10.054;2023-12-20T13:13:50;12.50;;;1.98;;
48823;SDS011;34640;53.590;10.054;2023-12-20T13:16:23;18.70;;;2.25;;
48823;SDS011;34640;53.590;10.054;2023-12-20T13:18:56;13.60;;;2.10;;
48823;SDS011;34640;53.590;10.054;2023-12-20T13:21:31;17.75;;;2.50;;
48823;SDS011;34640;53.590;10.054;2023-12-20T13:24:05;25.88;;;3.45;;
48823;SDS011;34640;53.590;10.054;2023-12-20T13:26:39;19.77;;;3.13;;
48823;SDS011;34640;53.590;10.054;2023-12-20T13:29:12;21.95;;;2.70;;
48823;SDS011;34640;53.590;10.054;2023-12-20T13:31:46;19.52;;;2.58;;
48823;SDS011;34640;53.590;10.054;2023-12-20T13:34:19;26.55;;;2.53;;
48823;SDS011;34640;53.590;10.054;2023-12-20T13:36:52;21.50;;;2.42;;
48823;SDS011;34640;53.590;10.054;2023-12-20T13:39:25;21.58;;;2.95;;
48823;SDS011;34640;53.590;10.054;2023-12-20T13:42:00;21.38;;;3.38;;
48823;SDS011;34640;53.590;10.054;2023-12-20T13:44:32;28.45;;;4.40;;
48823;SDS011;34640;53.590;10.054;2023-12-20T13:47:05;28.45;;;5.55;;
48823;SDS011;34640;53.590;10.054;2023-12-20T13:49:39;33.70;;;4.28;;
48823;SDS011;34640;53.590;10.054;2023-12-20T13:52:12;19.52;;;2.95;;
48823;SDS011;34640;53.590;10.054;2023-12-20T13:54:45;19.65;;;2.45;;
48823;SDS011;34640;53.590;10.054;2023-12-20T13:57:19;25.77;;;3.75;;
48823;SDS011;34640;53.590;10.054;2023-12-20T14:00:13;28.60;;;4.30;;
48823;SDS011;34640;53.590;10.054;2023-12-20T14:02:47;28.23;;;3.95;;
48823;SDS011;34640;53.590;10.054;2023-12-20T14:05:21;24.63;;;3.08;;
48823;SDS011;34640;53.590;10.054;2023-12-20T14:07:59;29.40;;;3.38;;
48823;SDS011;34640;53.590;10.054;2023-12-20T14:10:32;15.50;;;2.80;;
48823;SDS011;34640;53.590;10.054;2023-12-20T14:13:07;21.60;;;3.40;;
48823;SDS011;34640;53.590;10.054;2023-12-20T14:15:40;20.88;;;2.92;;
48823;SDS011;34640;53.590;10.054;2023-12-20T14:18:12;27.20;;;3.38;;
48823;SDS011;34640;53.590;10.054;2023-12-20T14:20:47;26.40;;;2.90;;
48823;SDS011;34640;53.590;10.054;2023-12-20T14:23:22;28.38;;;3.42;;
48823;SDS011;34640;53.590;10.054;2023-12-20T14:25:55;25.77;;;3.78;;
48823;SDS011;34640;53.590;10.054;2023-12-20T14:28:31;33.00;;;4.80;;
48823;SDS011;34640;53.590;10.054;2023-12-20T14:31:05;25.88;;;4.57;;
48823;SDS011;34640;53.590;10.054;2023-12-20T14:33:38;25.65;;;4.28;;
48823;SDS011;34640;53.590;10.054;2023-12-20T14:36:12;31.63;;;4.97;;
48823;SDS011;34640;53.590;10.054;2023-12-20T14:38:45;28.70;;;4.78;;
48823;SDS011;34640;53.590;10.054;2023-12-20T14:41:18;19.48;;;3.25;;
48823;SDS011;34640;53.590;10.054;2023-12-20T14:43:52;21.77;;;3.47;;
48823;SDS011;34640;53.590;10.054;2023-12-20T14:46:25;22.65;;;3.78;;
48823;SDS011;34640;53.590;10.054;2023-12-20T14:49:00;23.85;;;3.67;;
48823;SDS011;34640;53.590;10.054;2023-12-20T14:51:36;21.90;;;3.13;;
48823;SDS011;34640;53.590;10.054;2023-12-20T14:54:10;27.40;;;3.55;;
48823;SDS011;34640;53.590;10.054;2023-12-20T14:56:43;16.27;;;2.92;;
48823;SDS011;34640;53.590;10.054;2023-12-20T14:59:18;19.67;;;3.35;;
48823;SDS011;34640;53.590;10.054;2023-12-20T15:01:53;16.17;;;2.65;;